createdAt,value
2023-02-26T00:04:18.213Z,0.90
2023-02-26T00:09:16.684Z,1.23
2023-02-26T00:14:17.927Z,1.37
2023-02-26T00:19:16.645Z,1.10
2023-02-26T00:24:16.472Z,1.17
2023-02-26T00:29:15.446Z,1.30
2023-02-26T00:34:14.906Z,1.53
2023-02-26T00:39:29.203Z,1.20
2023-02-26T00:44:27.970Z,1.20
2023-02-26T00:49:37.669Z,1.10
2023-02-26T00:54:37.540Z,1.30
2023-02-26T00:59:36.016Z,0.70
2023-02-26T01:04:35.168Z,0.93
2023-02-26T01:09:35.343Z,0.77
2023-02-26T01:14:36.035Z,1.00
2023-02-26T01:19:42.932Z,1.13
2023-02-26T01:24:42.107Z,1.07
2023-02-26T01:29:42.431Z,1.60
2023-02-26T01:34:45.806Z,1.10
2023-02-26T01:39:49.090Z,1.33
2023-02-26T01:45:01.037Z,1.27
2023-02-26T01:50:07.524Z,1.10
2023-02-26T01:55:07.300Z,1.43
2023-02-26T02:00:09.068Z,1.00
2023-02-26T02:05:16.747Z,0.90
2023-02-26T02:10:17.865Z,1.00
2023-02-26T02:15:23.942Z,1.10
2023-02-26T02:20:44.673Z,1.43
2023-02-26T02:26:16.721Z,1.10
2023-02-26T02:31:20.450Z,1.27
2023-02-26T02:36:24.884Z,0.90
2023-02-26T02:41:28.108Z,1.10
2023-02-26T02:46:30.446Z,0.90
2023-02-26T02:51:33.882Z,1.10
2023-02-26T02:56:37.293Z,0.90
2023-02-26T03:01:38.846Z,1.07
2023-02-26T03:06:37.304Z,1.13
2023-02-26T03:11:36.277Z,1.50
2023-02-26T03:16:57.930Z,1.07
2023-02-26T03:22:03.108Z,1.47
2023-02-26T03:27:26.869Z,0.90
2023-02-26T03:32:31.398Z,0.80
2023-02-26T03:37:35.285Z,0.90
2023-02-26T03:42:38.845Z,0.90
2023-02-26T03:47:42.725Z,1.10
2023-02-26T03:52:45.117Z,0.80
2023-02-26T03:57:56.806Z,0.70
2023-02-26T04:03:06.898Z,0.80
2023-02-26T04:08:05.656Z,0.70
2023-02-26T04:13:05.571Z,0.77
2023-02-26T04:18:05.831Z,0.90
2023-02-26T04:23:04.037Z,0.80
2023-02-26T04:28:02.910Z,0.80
2023-02-26T04:33:01.611Z,0.80
2023-02-26T04:38:02.718Z,0.83
2023-02-26T04:43:02.094Z,0.73
2023-02-26T04:48:05.458Z,0.70
2023-02-26T04:53:05.633Z,0.83
2023-02-26T04:58:05.720Z,0.90
2023-02-26T05:03:03.867Z,0.90
2023-02-26T05:08:02.358Z,1.00
2023-02-26T05:13:03.455Z,1.00
2023-02-26T05:18:01.934Z,1.27
2023-02-26T05:23:01.353Z,1.00
2023-02-26T05:28:01.459Z,0.80
2023-02-26T05:33:00.748Z,1.00
2023-02-26T05:38:00.216Z,0.97
2023-02-26T05:42:58.818Z,0.90
2023-02-26T05:47:58.690Z,1.00
2023-02-26T05:52:57.104Z,1.03
2023-02-26T05:57:55.568Z,1.10
2023-02-26T06:02:54.366Z,1.00
2023-02-26T06:07:54.425Z,1.10
2023-02-26T06:12:52.531Z,1.17
2023-02-26T06:17:50.968Z,1.00
2023-02-26T06:22:49.421Z,1.40
2023-02-26T06:27:49.228Z,1.40
2023-02-26T06:32:47.677Z,1.30
2023-02-26T06:37:46.197Z,1.10
2023-02-26T06:42:45.376Z,1.00
2023-02-26T06:47:45.176Z,0.90
2023-02-26T06:52:43.655Z,1.00
2023-02-26T06:57:42.402Z,0.97
2023-02-26T07:02:41.175Z,0.70
2023-02-26T07:07:41.252Z,1.20
2023-02-26T07:12:39.926Z,1.23
2023-02-26T07:17:38.368Z,0.83
2023-02-26T07:22:37.107Z,0.97
2023-02-26T07:27:37.354Z,0.93
2023-02-26T07:32:36.472Z,0.77
2023-02-26T07:37:34.953Z,1.23
2023-02-26T07:42:33.236Z,0.90
2023-02-26T07:47:33.028Z,1.00
2023-02-26T07:52:31.594Z,1.03
2023-02-26T07:57:29.814Z,1.10
2023-02-26T08:02:28.510Z,2.17
2023-02-26T08:07:27.987Z,0.87
2023-02-26T08:12:26.184Z,1.13
2023-02-26T08:17:24.864Z,1.00
2023-02-26T08:22:24.173Z,0.90
2023-02-26T08:27:24.101Z,1.00
2023-02-26T08:32:23.998Z,1.03
2023-02-26T08:37:24.610Z,1.03
2023-02-26T08:42:24.561Z,0.83
2023-02-26T08:47:28.803Z,1.00
2023-02-26T08:52:27.843Z,1.00
2023-02-26T08:57:28.785Z,1.00
2023-02-26T09:02:28.488Z,0.90
2023-02-26T09:07:26.973Z,1.57
2023-02-26T09:12:25.778Z,0.90
2023-02-26T09:17:25.498Z,1.20
2023-02-26T09:22:24.041Z,1.07
2023-02-26T09:27:22.570Z,1.27
2023-02-26T09:32:21.537Z,1.57
2023-02-26T09:37:21.531Z,1.20
2023-02-26T09:42:31.024Z,1.10
2023-02-26T09:47:39.396Z,1.10
2023-02-26T09:52:43.123Z,1.03
2023-02-26T09:57:45.217Z,1.00
2023-02-26T10:02:54.669Z,0.90
2023-02-26T10:08:00.490Z,0.90
2023-02-26T10:13:00.731Z,0.80
2023-02-26T10:18:07.809Z,0.80
2023-02-26T10:23:17.534Z,0.90
2023-02-26T10:28:36.104Z,1.00
2023-02-26T10:33:40.466Z,1.00
2023-02-26T10:38:40.161Z,0.80
2023-02-26T10:43:42.147Z,1.10
2023-02-26T10:48:56.426Z,1.20
2023-02-26T10:54:00.832Z,1.00
2023-02-26T10:59:00.752Z,1.10
2023-02-26T11:04:02.917Z,0.80
2023-02-26T11:09:03.730Z,0.80
2023-02-26T11:14:04.375Z,1.07
2023-02-26T11:19:03.412Z,0.83
2023-02-26T11:24:07.019Z,0.80
2023-02-26T11:29:06.976Z,0.80
2023-02-26T11:34:09.305Z,1.10
2023-02-26T11:39:10.672Z,0.90
2023-02-26T11:44:14.643Z,0.90
2023-02-26T11:49:16.208Z,0.90
2023-02-26T11:54:25.040Z,0.93
2023-02-26T11:59:25.551Z,1.10
2023-02-26T12:04:27.824Z,0.80
2023-02-26T12:09:28.358Z,1.03
2023-02-26T12:14:54.364Z,1.13
2023-02-26T12:19:59.277Z,0.63
2023-02-26T12:25:28.065Z,0.80
2023-02-26T12:30:58.574Z,0.80
2023-02-26T12:36:17.826Z,0.97
2023-02-26T12:41:44.380Z,0.70
2023-02-26T12:46:55.718Z,0.60
2023-02-26T12:52:19.512Z,0.70
2023-02-26T12:58:01.203Z,0.70
2023-02-26T13:03:26.632Z,0.80
2023-02-26T13:08:33.667Z,1.53
2023-02-26T13:13:47.704Z,0.87
2023-02-26T13:18:52.439Z,0.80
2023-02-26T13:23:55.043Z,0.80
2023-02-26T13:28:59.037Z,1.37
2023-02-26T13:34:02.423Z,0.83
2023-02-26T13:39:21.607Z,0.90
2023-02-26T13:44:31.701Z,0.80
2023-02-26T13:49:41.710Z,1.00
2023-02-26T13:54:48.396Z,1.27
2023-02-26T13:59:55.685Z,0.90
2023-02-26T14:05:00.116Z,1.80
2023-02-26T14:10:02.945Z,0.90
2023-02-26T14:15:21.854Z,1.20
2023-02-26T14:20:27.579Z,1.10
2023-02-26T14:25:35.153Z,0.80
2023-02-26T14:30:36.099Z,1.10
2023-02-26T14:35:42.008Z,0.90
2023-02-26T14:40:46.347Z,0.90
2023-02-26T14:45:46.446Z,1.50
2023-02-26T14:51:07.355Z,1.40
2023-02-26T14:56:13.086Z,1.20
2023-02-26T15:01:25.843Z,1.50
2023-02-26T15:06:43.254Z,2.30
2023-02-26T15:12:01.127Z,1.57
2023-02-26T15:17:11.424Z,2.40
2023-02-26T15:22:23.832Z,1.00
2023-02-26T15:27:23.371Z,1.43
2023-02-26T15:32:28.392Z,0.80
2023-02-26T15:37:30.495Z,1.60
2023-02-26T15:42:37.773Z,1.13
2023-02-26T15:47:36.619Z,1.20
2023-02-26T15:52:36.653Z,1.23
2023-02-26T15:57:37.087Z,1.70
2023-02-26T16:02:35.839Z,1.60
2023-02-26T16:07:35.782Z,1.33
2023-02-26T16:12:38.804Z,1.20
2023-02-26T16:17:42.255Z,1.40
2023-02-26T16:22:46.311Z,1.67
2023-02-26T16:27:45.359Z,2.17
2023-02-26T16:32:44.186Z,1.27
2023-02-26T16:37:50.232Z,1.10
2023-02-26T16:42:55.409Z,1.57
2023-02-26T16:47:56.408Z,1.40
2023-02-26T16:53:16.974Z,2.00
2023-02-26T16:58:18.062Z,2.07
2023-02-26T17:03:19.717Z,2.67
2023-02-26T17:08:21.332Z,3.07
2023-02-26T17:13:28.348Z,3.67
2023-02-26T17:18:26.923Z,3.10
2023-02-26T17:23:31.469Z,2.10
2023-02-26T17:28:35.783Z,2.07
2023-02-26T17:33:34.336Z,2.27
2023-02-26T17:38:34.196Z,2.30
2023-02-26T17:43:33.375Z,2.50
2023-02-26T17:48:32.303Z,3.20
2023-02-26T17:53:34.036Z,2.37
2023-02-26T17:58:35.868Z,2.80
2023-02-26T18:03:34.410Z,3.23
2023-02-26T18:08:35.140Z,2.70
2023-02-26T18:13:35.310Z,2.30
2023-02-26T18:18:34.111Z,2.33
2023-02-26T18:23:32.623Z,3.27
2023-02-26T18:28:31.328Z,2.60
2023-02-26T18:33:31.196Z,2.23
2023-02-26T18:38:29.826Z,2.43
2023-02-26T18:43:28.507Z,3.20
2023-02-26T18:48:27.015Z,2.80
2023-02-26T18:53:27.914Z,3.07
2023-02-26T18:58:26.643Z,3.53
2023-02-26T19:03:25.117Z,3.37
2023-02-26T19:08:23.948Z,3.53
2023-02-26T19:13:24.306Z,3.43
2023-02-26T19:18:22.456Z,4.10
2023-02-26T19:23:21.536Z,2.37
2023-02-26T19:28:19.590Z,3.80
2023-02-26T19:33:20.541Z,4.10
2023-02-26T19:38:19.401Z,7.57
2023-02-26T19:43:18.099Z,9.30
2023-02-26T19:48:16.489Z,6.20
2023-02-26T19:53:17.310Z,6.10
2023-02-26T19:58:15.732Z,6.50
2023-02-26T20:03:14.401Z,4.37
2023-02-26T20:08:12.889Z,3.23
2023-02-26T20:13:13.115Z,2.87
2023-02-26T20:18:11.880Z,3.30
2023-02-26T20:23:10.767Z,4.00
2023-02-26T20:28:10.224Z,5.30
2023-02-26T20:33:10.399Z,4.70
2023-02-26T20:38:08.913Z,3.60
2023-02-26T20:43:08.712Z,4.73
2023-02-26T20:48:08.237Z,3.10
2023-02-26T20:53:10.151Z,3.97
2023-02-26T20:58:08.397Z,9.47
2023-02-26T21:03:08.393Z,11.80
2023-02-26T21:08:08.241Z,6.60
2023-02-26T21:13:07.482Z,9.30
2023-02-26T21:18:05.931Z,10.13
2023-02-26T21:23:04.769Z,10.77
2023-02-26T21:28:04.685Z,8.93
2023-02-26T21:33:03.312Z,9.50
2023-02-26T21:38:01.684Z,8.13
2023-02-26T21:43:00.056Z,7.03
2023-02-26T21:48:00.492Z,7.40
2023-02-26T21:52:58.974Z,6.83
2023-02-26T21:57:57.460Z,5.60
2023-02-26T22:02:55.986Z,6.23
2023-02-26T22:07:55.801Z,6.00
2023-02-26T22:12:54.729Z,24.20
2023-02-26T22:17:53.602Z,15.37
2023-02-26T22:22:51.857Z,17.33
2023-02-26T22:27:51.737Z,21.10
2023-02-26T22:32:50.223Z,11.43
2023-02-26T22:37:48.354Z,10.33
2023-02-26T22:42:46.617Z,10.00
2023-02-26T22:47:47.211Z,8.30
2023-02-26T22:52:45.996Z,9.83
2023-02-26T22:57:44.385Z,9.77
2023-02-26T23:02:43.124Z,7.73
2023-02-26T23:07:43.188Z,6.17
2023-02-26T23:12:42.124Z,5.27
2023-02-26T23:17:40.802Z,4.43
2023-02-26T23:22:39.063Z,4.30
2023-02-26T23:27:38.604Z,4.50
2023-02-26T23:32:37.262Z,3.50
2023-02-26T23:37:36.141Z,3.37
2023-02-26T23:42:34.893Z,3.53
2023-02-26T23:47:34.594Z,3.13
2023-02-26T23:52:33.053Z,3.60
2023-02-26T23:57:31.959Z,3.17
